createdAt,value
2023-03-15T00:00:16.064Z,0.51
2023-03-15T00:01:16.072Z,0.53
2023-03-15T00:02:16.092Z,0.56
2023-03-15T00:03:16.042Z,0.57
2023-03-15T00:04:16.021Z,0.56
2023-03-15T00:05:15.999Z,0.51
2023-03-15T00:06:15.997Z,0.51
2023-03-15T00:07:16.006Z,0.48
2023-03-15T00:08:15.965Z,0.44
2023-03-15T00:09:15.954Z,0.48
2023-03-15T00:10:15.939Z,0.49
2023-03-15T00:11:15.953Z,0.52
2023-03-15T00:12:15.923Z,0.52
2023-03-15T00:13:15.932Z,0.51
2023-03-15T00:14:15.924Z,0.49
2023-03-15T00:15:15.912Z,0.51
2023-03-15T00:16:15.924Z,0.51
2023-03-15T00:17:15.876Z,0.52
2023-03-15T00:18:15.855Z,0.53
2023-03-15T00:19:15.897Z,0.49
2023-03-15T00:20:15.833Z,0.49
2023-03-15T00:21:15.826Z,0.48
2023-03-15T00:22:15.833Z,0.45
2023-03-15T00:23:15.818Z,0.45
2023-03-15T00:24:15.797Z,0.44
2023-03-15T00:25:15.818Z,0.44
2023-03-15T00:26:15.777Z,0.45
2023-03-15T00:27:15.773Z,0.41
2023-03-15T00:28:15.762Z,0.40
2023-03-15T00:29:15.752Z,0.43
2023-03-15T00:30:15.741Z,0.40
2023-03-15T00:31:15.809Z,0.41
2023-03-15T00:32:15.730Z,0.38
2023-03-15T00:33:15.721Z,0.35
2023-03-15T00:34:15.711Z,0.38
2023-03-15T00:35:15.681Z,0.40
2023-03-15T00:36:15.710Z,0.40
2023-03-15T00:37:15.669Z,0.43
2023-03-15T00:38:15.658Z,0.41
2023-03-15T00:39:15.643Z,0.40
2023-03-15T00:40:15.639Z,0.41
2023-03-15T00:41:15.650Z,0.43
2023-03-15T00:42:15.630Z,0.43
2023-03-15T00:43:15.602Z,0.44
2023-03-15T00:44:15.629Z,0.41
2023-03-15T00:45:15.616Z,0.37
2023-03-15T00:46:15.592Z,0.41
2023-03-15T00:47:15.569Z,0.43
2023-03-15T00:48:15.552Z,0.43
2023-03-15T00:49:15.553Z,0.43
2023-03-15T00:50:15.542Z,0.45
2023-03-15T00:51:15.558Z,0.45
2023-03-15T00:52:15.512Z,0.44
2023-03-15T00:53:15.520Z,0.48
2023-03-15T00:54:15.489Z,0.45
2023-03-15T00:55:15.484Z,0.44
2023-03-15T00:56:15.478Z,0.45
2023-03-15T00:57:15.500Z,0.49
2023-03-15T00:58:15.448Z,0.45
2023-03-15T00:59:15.441Z,0.49
2023-03-15T01:00:15.484Z,0.51
2023-03-15T01:01:15.448Z,0.52
2023-03-15T01:02:15.445Z,0.53
2023-03-15T01:03:15.468Z,0.56
2023-03-15T01:04:15.397Z,0.60
2023-03-15T01:05:15.380Z,0.59
2023-03-15T01:06:15.396Z,0.60
2023-03-15T01:07:15.387Z,0.60
2023-03-15T01:08:15.361Z,0.60
2023-03-15T01:09:15.367Z,0.60
2023-03-15T01:10:15.351Z,0.63
2023-03-15T01:11:15.326Z,0.64
2023-03-15T01:12:15.326Z,0.67
2023-03-15T01:13:15.352Z,0.71
2023-03-15T01:14:15.296Z,0.68
2023-03-15T01:15:15.277Z,0.70
2023-03-15T01:16:15.494Z,0.70
2023-03-15T01:17:15.269Z,0.68
2023-03-15T01:18:15.248Z,0.71
2023-03-15T01:19:16.031Z,0.70
2023-03-15T01:20:15.232Z,0.72
2023-03-15T01:21:15.240Z,0.71
2023-03-15T01:22:15.226Z,0.71
2023-03-15T01:23:15.191Z,0.74
2023-03-15T01:24:15.192Z,0.71
2023-03-15T01:25:15.219Z,0.74
2023-03-15T01:26:15.202Z,0.74
2023-03-15T01:27:15.162Z,0.75
2023-03-15T01:28:15.163Z,0.75
2023-03-15T01:29:15.145Z,0.72
2023-03-15T01:30:15.141Z,0.75
2023-03-15T01:31:15.160Z,0.77
2023-03-15T01:32:15.159Z,0.77
2023-03-15T01:33:15.108Z,0.81
2023-03-15T01:34:15.100Z,0.82
2023-03-15T01:35:15.082Z,0.82
2023-03-15T01:36:15.072Z,0.84
2023-03-15T01:37:15.079Z,0.86
2023-03-15T01:38:15.091Z,0.89
2023-03-15T01:39:15.033Z,0.90
2023-03-15T01:40:15.029Z,0.90
2023-03-15T01:41:15.014Z,0.88
2023-03-15T01:42:15.023Z,0.88
2023-03-15T01:43:15.010Z,0.88
2023-03-15T01:44:15.001Z,0.88
2023-03-15T01:45:14.973Z,0.89
2023-03-15T01:46:15.091Z,0.88
2023-03-15T01:47:14.979Z,0.89
2023-03-15T01:48:14.956Z,0.90
2023-03-15T01:49:14.981Z,0.89
2023-03-15T01:50:14.925Z,0.88
2023-03-15T01:51:14.923Z,0.90
2023-03-15T01:52:14.904Z,0.90
2023-03-15T01:53:14.926Z,0.90
2023-03-15T01:54:14.898Z,0.88
2023-03-15T01:55:14.887Z,0.86
2023-03-15T01:56:14.858Z,0.84
2023-03-15T01:57:14.853Z,0.81
2023-03-15T01:58:14.867Z,0.80
2023-03-15T01:59:14.851Z,0.78
2023-03-15T02:00:14.825Z,0.77
2023-03-15T02:01:14.944Z,0.75
2023-03-15T02:02:15.048Z,0.75
2023-03-15T02:03:14.809Z,0.72
2023-03-15T02:04:14.780Z,0.74
2023-03-15T02:05:15.745Z,0.71
2023-03-15T02:06:14.762Z,0.70
2023-03-15T02:07:14.752Z,0.70
2023-03-15T02:08:14.759Z,0.68
2023-03-15T02:09:14.748Z,0.70
2023-03-15T02:10:14.740Z,0.70
2023-03-15T02:11:14.806Z,0.67
2023-03-15T02:12:14.701Z,0.63
2023-03-15T02:13:14.700Z,0.64
2023-03-15T02:14:14.708Z,0.60
2023-03-15T02:15:14.682Z,0.60
2023-03-15T02:16:14.683Z,0.62
2023-03-15T02:17:14.675Z,0.63
2023-03-15T02:18:14.650Z,0.63
2023-03-15T02:19:14.637Z,0.60
2023-03-15T02:20:14.631Z,0.59
2023-03-15T02:21:14.620Z,0.57
2023-03-15T02:22:14.675Z,0.57
2023-03-15T02:23:14.586Z,0.59
2023-03-15T02:24:14.582Z,0.57
2023-03-15T02:25:14.573Z,0.53
2023-03-15T02:26:14.555Z,0.49
2023-03-15T02:27:14.616Z,0.48
2023-03-15T02:28:14.605Z,0.43
2023-03-15T02:29:14.529Z,0.43
2023-03-15T02:30:14.527Z,0.43
2023-03-15T02:31:14.692Z,0.43
2023-03-15T02:32:14.504Z,0.40
2023-03-15T02:33:14.494Z,0.41
2023-03-15T02:34:14.499Z,0.40
2023-03-15T02:35:14.472Z,0.37
2023-03-15T02:36:14.459Z,0.37
2023-03-15T02:37:14.448Z,0.35
2023-03-15T02:38:14.485Z,0.35
2023-03-15T02:39:14.434Z,0.35
2023-03-15T02:40:14.423Z,0.37
2023-03-15T02:41:14.425Z,0.35
2023-03-15T02:42:14.405Z,0.35
2023-03-15T02:43:14.398Z,0.37
2023-03-15T02:44:14.462Z,0.34
2023-03-15T02:45:14.371Z,0.33
2023-03-15T02:46:14.399Z,0.31
2023-03-15T02:47:14.358Z,0.30
2023-03-15T02:48:14.341Z,0.33
2023-03-15T02:49:14.353Z,0.33
2023-03-15T02:50:14.358Z,0.31
2023-03-15T02:51:14.322Z,0.33
2023-03-15T02:52:14.330Z,0.33
2023-03-15T02:53:14.290Z,0.31
2023-03-15T02:54:14.289Z,0.33
2023-03-15T02:55:14.277Z,0.30
2023-03-15T02:56:14.286Z,0.30
2023-03-15T02:57:14.252Z,0.31
2023-03-15T02:58:14.251Z,0.30
2023-03-15T02:59:14.235Z,0.28
2023-03-15T03:00:14.278Z,0.30
2023-03-15T03:01:14.244Z,0.31
2023-03-15T03:02:14.301Z,0.31
2023-03-15T03:03:14.218Z,0.30
2023-03-15T03:04:14.182Z,0.33
2023-03-15T03:05:14.179Z,0.33
2023-03-15T03:06:14.165Z,0.33
2023-03-15T03:07:14.162Z,0.31
2023-03-15T03:08:14.142Z,0.33
2023-03-15T03:09:14.154Z,0.33
2023-03-15T03:10:14.125Z,0.34
2023-03-15T03:11:14.108Z,0.33
2023-03-15T03:12:14.100Z,0.35
2023-03-15T03:13:14.089Z,0.33
2023-03-15T03:14:14.205Z,0.34
2023-03-15T03:15:14.107Z,0.33
2023-03-15T03:16:14.117Z,0.31
2023-03-15T03:17:14.048Z,0.35
2023-03-15T03:18:14.043Z,0.33
2023-03-15T03:19:14.031Z,0.35
2023-03-15T03:20:14.027Z,0.35
2023-03-15T03:21:14.031Z,0.37
2023-03-15T03:22:13.994Z,0.35
2023-03-15T03:23:14.008Z,0.37
2023-03-15T03:24:13.979Z,0.37
2023-03-15T03:25:13.987Z,0.37
2023-03-15T03:26:13.974Z,0.38
2023-03-15T03:27:13.942Z,0.41
2023-03-15T03:28:13.937Z,0.43
2023-03-15T03:29:13.918Z,0.43
2023-03-15T03:30:13.944Z,0.44
2023-03-15T03:31:13.925Z,0.44
2023-03-15T03:32:13.889Z,0.44
2023-03-15T03:33:13.877Z,0.48
2023-03-15T03:34:13.891Z,0.48
2023-03-15T03:35:16.048Z,0.45
2023-03-15T03:36:13.874Z,0.48
2023-03-15T03:37:13.827Z,0.48
2023-03-15T03:38:13.817Z,0.45
2023-03-15T03:39:13.819Z,0.45
2023-03-15T03:40:13.824Z,0.45
2023-03-15T03:41:13.792Z,0.48
2023-03-15T03:42:13.781Z,0.49
2023-03-15T03:43:13.769Z,0.49
2023-03-15T03:44:13.760Z,0.48
2023-03-15T03:45:13.753Z,0.49
2023-03-15T03:46:13.802Z,0.51
2023-03-15T03:47:13.726Z,0.52
2023-03-15T03:48:13.741Z,0.52
2023-03-15T03:49:13.708Z,0.51
2023-03-15T03:50:13.700Z,0.53
2023-03-15T03:51:13.721Z,0.53
2023-03-15T03:52:13.678Z,0.52
2023-03-15T03:53:13.662Z,0.53
2023-03-15T03:54:14.858Z,0.56
2023-03-15T03:55:13.669Z,0.53
2023-03-15T03:56:13.658Z,0.56
2023-03-15T03:57:13.620Z,0.59
2023-03-15T03:58:13.623Z,0.57
2023-03-15T03:59:13.618Z,0.59
2023-03-15T04:00:13.596Z,0.60
2023-03-15T04:01:13.583Z,0.62
2023-03-15T04:02:13.633Z,0.63
2023-03-15T04:03:13.569Z,0.63
2023-03-15T04:04:13.591Z,0.62
2023-03-15T04:05:13.556Z,0.56
2023-03-15T04:06:13.563Z,0.57
2023-03-15T04:07:15.336Z,0.59
2023-03-15T04:08:13.526Z,0.60
2023-03-15T04:09:13.503Z,0.62
2023-03-15T04:10:13.498Z,0.59
2023-03-15T04:11:13.494Z,0.59
2023-03-15T04:12:13.516Z,0.59
2023-03-15T04:13:13.475Z,0.60
2023-03-15T04:14:13.445Z,0.62
2023-03-15T04:15:13.441Z,0.62
2023-03-15T04:16:13.520Z,0.63
2023-03-15T04:17:13.425Z,0.63
2023-03-15T04:18:13.431Z,0.64
2023-03-15T04:19:13.397Z,0.64
2023-03-15T04:20:13.390Z,0.62
2023-03-15T04:21:13.387Z,0.63
2023-03-15T04:22:13.376Z,0.64
2023-03-15T04:23:13.358Z,0.68
2023-03-15T04:24:13.377Z,0.70
2023-03-15T04:25:13.334Z,0.68
2023-03-15T04:26:13.350Z,0.67
2023-03-15T04:27:13.318Z,0.64
2023-03-15T04:28:13.323Z,0.68
2023-03-15T04:29:13.298Z,0.67
2023-03-15T04:30:13.312Z,0.63
2023-03-15T04:31:13.307Z,0.63
2023-03-15T04:32:13.285Z,0.64
2023-03-15T04:33:13.265Z,0.64
2023-03-15T04:34:13.256Z,0.63
2023-03-15T04:35:13.253Z,0.63
2023-03-15T04:36:13.286Z,0.62
2023-03-15T04:37:13.225Z,0.64
2023-03-15T04:38:13.212Z,0.64
2023-03-15T04:39:13.213Z,0.62
2023-03-15T04:40:13.197Z,0.63
2023-03-15T04:41:13.203Z,0.63
2023-03-15T04:42:13.201Z,0.67
2023-03-15T04:43:13.166Z,0.67
2023-03-15T04:44:13.159Z,0.68
2023-03-15T04:45:13.166Z,0.70
2023-03-15T04:46:13.139Z,0.71
2023-03-15T04:47:13.126Z,0.70
2023-03-15T04:48:13.121Z,0.71
2023-03-15T04:49:13.104Z,0.71
2023-03-15T04:50:13.097Z,0.71
2023-03-15T04:51:13.102Z,0.72
2023-03-15T04:52:13.084Z,0.72
2023-03-15T04:53:13.072Z,0.71
2023-03-15T04:54:13.053Z,0.70
2023-03-15T04:55:13.058Z,0.70
2023-03-15T04:56:13.038Z,0.70
2023-03-15T04:57:13.045Z,0.68
2023-03-15T04:58:13.017Z,0.68
2023-03-15T04:59:13.007Z,0.67
2023-03-15T05:00:13.042Z,0.71
2023-03-15T05:01:12.996Z,0.70
2023-03-15T05:02:13.028Z,0.72
2023-03-15T05:03:12.980Z,0.71
2023-03-15T05:04:12.954Z,0.72
2023-03-15T05:05:12.955Z,0.74
2023-03-15T05:06:12.934Z,0.71
2023-03-15T05:07:12.916Z,0.72
2023-03-15T05:08:12.938Z,0.72
2023-03-15T05:09:12.912Z,0.72
2023-03-15T05:10:12.917Z,0.71
2023-03-15T05:11:12.896Z,0.71
2023-03-15T05:12:12.873Z,0.71
2023-03-15T05:13:12.853Z,0.70
2023-03-15T05:14:12.816Z,0.71
2023-03-15T05:15:12.838Z,0.68
2023-03-15T05:16:12.826Z,0.70
2023-03-15T05:17:12.841Z,0.68
2023-03-15T05:18:12.818Z,0.70
2023-03-15T05:19:12.800Z,0.70
2023-03-15T05:20:12.814Z,0.71
2023-03-15T05:21:12.738Z,0.71
2023-03-15T05:22:12.712Z,0.70
2023-03-15T05:23:12.709Z,0.70
2023-03-15T05:24:12.695Z,0.67
2023-03-15T05:25:12.688Z,0.71
2023-03-15T05:26:12.688Z,0.70
2023-03-15T05:27:12.667Z,0.71
2023-03-15T05:28:12.682Z,0.71
2023-03-15T05:29:12.641Z,0.71
2023-03-15T05:30:12.633Z,0.70
2023-03-15T05:31:12.629Z,0.71
2023-03-15T05:32:12.634Z,0.71
2023-03-15T05:33:12.603Z,0.72
2023-03-15T05:34:12.591Z,0.74
2023-03-15T05:35:12.591Z,0.74
2023-03-15T05:36:12.591Z,0.74
2023-03-15T05:37:12.577Z,0.77
2023-03-15T05:38:12.590Z,0.75
2023-03-15T05:39:12.543Z,0.77
2023-03-15T05:40:12.535Z,0.75
2023-03-15T05:41:12.548Z,0.75
2023-03-15T05:42:12.514Z,0.74
2023-03-15T05:43:12.508Z,0.77
2023-03-15T05:44:12.485Z,0.77
2023-03-15T05:45:12.488Z,0.80
2023-03-15T05:46:12.537Z,0.78
2023-03-15T05:47:12.475Z,0.80
2023-03-15T05:48:12.557Z,0.81
2023-03-15T05:49:12.517Z,0.81
2023-03-15T05:50:12.459Z,0.84
2023-03-15T05:51:12.434Z,0.82
2023-03-15T05:52:12.413Z,0.82
2023-03-15T05:53:12.406Z,0.81
2023-03-15T05:54:12.393Z,0.82
2023-03-15T05:55:12.400Z,0.84
2023-03-15T05:56:12.368Z,0.84
2023-03-15T05:57:12.352Z,0.84
2023-03-15T05:58:12.348Z,0.84
2023-03-15T05:59:12.336Z,0.84
2023-03-15T06:00:12.326Z,0.86
2023-03-15T06:01:12.335Z,0.86
2023-03-15T06:02:12.306Z,0.89
2023-03-15T06:03:12.315Z,0.90
2023-03-15T06:04:12.330Z,0.90
2023-03-15T06:05:12.274Z,0.88
2023-03-15T06:06:12.281Z,0.89
2023-03-15T06:07:12.249Z,0.89
2023-03-15T06:08:12.257Z,0.88
2023-03-15T06:09:12.252Z,0.88
2023-03-15T06:10:12.251Z,0.86
2023-03-15T06:11:12.215Z,0.88
2023-03-15T06:12:12.217Z,0.88
2023-03-15T06:13:12.199Z,0.86
2023-03-15T06:14:12.184Z,0.86
2023-03-15T06:15:12.175Z,0.88
2023-03-15T06:16:12.212Z,0.88
2023-03-15T06:17:12.154Z,0.89
2023-03-15T06:18:12.135Z,0.89
2023-03-15T06:19:12.127Z,0.89
2023-03-15T06:20:12.131Z,0.92
2023-03-15T06:21:12.126Z,0.92
2023-03-15T06:22:12.102Z,0.95
2023-03-15T06:23:12.084Z,0.95
2023-03-15T06:24:12.098Z,0.96
2023-03-15T06:25:12.081Z,0.95
2023-03-15T06:26:12.059Z,0.95
2023-03-15T06:27:12.051Z,0.96
2023-03-15T06:28:12.035Z,0.95
2023-03-15T06:29:12.031Z,0.95
2023-03-15T06:30:12.032Z,0.95
2023-03-15T06:31:12.100Z,0.95
2023-03-15T06:32:12.003Z,0.93
2023-03-15T06:33:11.983Z,0.93
2023-03-15T06:34:11.987Z,0.96
2023-03-15T06:35:11.988Z,0.96
2023-03-15T06:36:11.957Z,0.96
2023-03-15T06:37:12.683Z,0.96
2023-03-15T06:38:12.118Z,0.93
2023-03-15T06:39:11.926Z,0.98
2023-03-15T06:40:11.949Z,0.93
2023-03-15T06:41:11.915Z,0.95
2023-03-15T06:42:11.896Z,0.99
2023-03-15T06:43:11.902Z,0.99
2023-03-15T06:44:11.883Z,1.00
2023-03-15T06:45:11.872Z,1.02
2023-03-15T06:46:11.962Z,1.04
2023-03-15T06:47:11.841Z,1.02
2023-03-15T06:48:11.852Z,1.02
2023-03-15T06:49:11.825Z,1.02
2023-03-15T06:50:11.816Z,1.06
2023-03-15T06:51:11.804Z,1.00
2023-03-15T06:52:11.792Z,1.04
2023-03-15T06:53:11.787Z,1.06
2023-03-15T06:54:11.798Z,1.04
2023-03-15T06:55:11.755Z,1.06
2023-03-15T06:56:11.754Z,1.06
2023-03-15T06:57:11.737Z,1.08
2023-03-15T06:58:11.738Z,1.08
2023-03-15T06:59:11.725Z,1.07
2023-03-15T07:00:11.740Z,1.08
2023-03-15T07:01:11.713Z,1.08
2023-03-15T07:02:11.778Z,1.07
2023-03-15T07:03:11.694Z,1.08
2023-03-15T07:04:11.687Z,1.10
2023-03-15T07:05:11.706Z,1.11
2023-03-15T07:06:11.653Z,1.11
2023-03-15T07:07:11.647Z,1.11
2023-03-15T07:08:11.637Z,1.11
2023-03-15T07:09:11.620Z,1.11
2023-03-15T07:10:11.639Z,1.10
2023-03-15T07:11:11.638Z,1.11
2023-03-15T07:12:11.596Z,1.11
2023-03-15T07:13:11.586Z,1.11
2023-03-15T07:14:11.579Z,1.10
2023-03-15T07:15:11.582Z,1.08
2023-03-15T07:16:11.653Z,1.08
2023-03-15T07:17:11.546Z,1.10
2023-03-15T07:18:11.549Z,1.07
2023-03-15T07:19:11.522Z,1.06
2023-03-15T07:20:11.518Z,1.06
2023-03-15T07:21:11.501Z,1.04
2023-03-15T07:22:11.510Z,1.04
2023-03-15T07:23:11.486Z,1.04
2023-03-15T07:24:11.485Z,1.04
2023-03-15T07:25:11.463Z,1.02
2023-03-15T07:26:11.476Z,1.04
2023-03-15T07:27:13.150Z,1.04
2023-03-15T07:28:11.462Z,1.02
2023-03-15T07:29:11.429Z,1.02
2023-03-15T07:30:11.414Z,1.04
2023-03-15T07:31:11.408Z,1.06
2023-03-15T07:32:11.415Z,1.02
2023-03-15T07:33:11.424Z,1.02
2023-03-15T07:34:11.370Z,1.04
2023-03-15T07:35:13.440Z,1.06
2023-03-15T07:36:11.361Z,1.07
2023-03-15T07:37:11.335Z,1.06
2023-03-15T07:38:11.331Z,1.06
2023-03-15T07:39:11.329Z,1.04
2023-03-15T07:40:11.303Z,1.07
2023-03-15T07:41:11.301Z,1.06
2023-03-15T07:42:11.306Z,1.10
2023-03-15T07:43:11.296Z,1.11
2023-03-15T07:44:11.292Z,1.11
2023-03-15T07:45:11.287Z,1.14
2023-03-15T07:46:11.300Z,1.13
2023-03-15T07:47:11.243Z,1.13
2023-03-15T07:48:11.256Z,1.13
2023-03-15T07:49:11.233Z,1.10
2023-03-15T07:50:11.207Z,1.11
2023-03-15T07:51:11.197Z,1.11
2023-03-15T07:52:11.181Z,1.11
2023-03-15T07:53:11.174Z,1.13
2023-03-15T07:54:11.183Z,1.13
2023-03-15T07:55:11.173Z,1.14
2023-03-15T07:56:11.158Z,1.13
2023-03-15T07:57:11.136Z,1.13
2023-03-15T07:58:11.123Z,1.14
2023-03-15T07:59:11.124Z,1.14
2023-03-15T08:00:11.101Z,1.13
2023-03-15T08:01:11.108Z,1.13
2023-03-15T08:02:11.110Z,1.16
2023-03-15T08:03:11.095Z,1.16
2023-03-15T08:04:11.096Z,1.16
2023-03-15T08:05:11.049Z,1.14
2023-03-15T08:06:11.047Z,1.16
2023-03-15T08:07:11.027Z,1.16
2023-03-15T08:08:11.017Z,1.13
2023-03-15T08:09:11.017Z,1.11
2023-03-15T08:10:11.021Z,1.11
2023-03-15T08:11:10.985Z,1.14
2023-03-15T08:12:10.987Z,1.11
2023-03-15T08:13:10.973Z,1.13
2023-03-15T08:14:10.974Z,1.13
2023-03-15T08:15:10.950Z,1.16
2023-03-15T08:16:11.046Z,1.14
2023-03-15T08:17:10.926Z,1.14
2023-03-15T08:18:10.960Z,1.16
2023-03-15T08:19:10.921Z,1.18
2023-03-15T08:20:10.901Z,1.18
2023-03-15T08:21:10.888Z,1.20
2023-03-15T08:22:10.873Z,1.24
2023-03-15T08:23:10.868Z,1.24
2023-03-15T08:24:10.864Z,1.25
2023-03-15T08:25:10.874Z,1.25
2023-03-15T08:26:10.846Z,1.29
2023-03-15T08:27:10.828Z,1.31
2023-03-15T08:28:10.816Z,1.32
2023-03-15T08:29:10.806Z,1.32
2023-03-15T08:30:10.808Z,1.34
2023-03-15T08:31:10.884Z,1.35
2023-03-15T08:32:10.781Z,1.34
2023-03-15T08:33:10.800Z,1.31
2023-03-15T08:34:10.770Z,1.31
2023-03-15T08:35:10.767Z,1.31
2023-03-15T08:36:10.871Z,1.32
2023-03-15T08:37:10.731Z,1.31
2023-03-15T08:38:10.736Z,1.31
2023-03-15T08:39:10.702Z,1.32
2023-03-15T08:40:10.722Z,1.34
2023-03-15T08:41:10.727Z,1.35
2023-03-15T08:42:10.670Z,1.35
2023-03-15T08:43:10.681Z,1.39
2023-03-15T08:44:10.650Z,1.43
2023-03-15T08:45:10.649Z,1.43
2023-03-15T08:46:10.666Z,1.47
2023-03-15T08:47:10.695Z,1.50
2023-03-15T08:48:10.616Z,1.53
2023-03-15T08:49:10.600Z,1.53
2023-03-15T08:50:10.593Z,1.56
2023-03-15T08:51:10.586Z,1.56
2023-03-15T08:52:10.589Z,1.57
2023-03-15T08:53:10.556Z,1.60
2023-03-15T08:54:10.564Z,1.60
2023-03-15T08:55:10.628Z,1.61
2023-03-15T08:56:10.522Z,1.61
2023-03-15T08:57:10.573Z,1.63
2023-03-15T08:58:10.505Z,1.64
2023-03-15T08:59:12.857Z,1.64
2023-03-15T09:00:10.489Z,1.65
2023-03-15T09:01:10.496Z,1.64
2023-03-15T09:02:10.536Z,1.67
2023-03-15T09:03:10.481Z,1.67
2023-03-15T09:04:10.470Z,1.68
2023-03-15T09:05:10.448Z,1.70
2023-03-15T09:06:10.427Z,1.71
2023-03-15T09:07:10.414Z,1.71
2023-03-15T09:08:10.400Z,1.72
2023-03-15T09:09:10.417Z,1.72
2023-03-15T09:10:10.381Z,1.72
2023-03-15T09:11:10.369Z,1.71
2023-03-15T09:12:10.375Z,1.72
2023-03-15T09:13:10.355Z,1.70
2023-03-15T09:14:10.337Z,1.68
2023-03-15T09:15:10.343Z,1.67
2023-03-15T09:16:10.343Z,1.67
2023-03-15T09:17:10.426Z,1.67
2023-03-15T09:18:10.295Z,1.65
2023-03-15T09:19:10.324Z,1.63
2023-03-15T09:20:10.281Z,1.63
2023-03-15T09:21:10.264Z,1.61
2023-03-15T09:22:16.952Z,1.60
2023-03-15T09:23:10.262Z,1.60
2023-03-15T09:24:10.237Z,1.61
2023-03-15T09:25:10.233Z,1.61
2023-03-15T09:26:10.224Z,1.63
2023-03-15T09:27:10.223Z,1.65
2023-03-15T09:28:10.235Z,1.68
2023-03-15T09:29:10.189Z,1.68
2023-03-15T09:30:10.183Z,1.68
2023-03-15T09:31:10.238Z,1.72
2023-03-15T09:32:10.163Z,1.75
2023-03-15T09:33:10.297Z,1.79
2023-03-15T09:34:10.152Z,1.81
2023-03-15T09:35:10.138Z,1.83
2023-03-15T09:36:10.128Z,1.86
2023-03-15T09:37:10.116Z,1.88
2023-03-15T09:38:10.102Z,1.90
2023-03-15T09:39:10.144Z,1.92
2023-03-15T09:40:10.093Z,1.98
2023-03-15T09:41:10.064Z,2.00
2023-03-15T09:42:10.071Z,2.01
2023-03-15T09:43:10.044Z,2.02
2023-03-15T09:44:10.816Z,2.02
2023-03-15T09:45:10.041Z,2.04
2023-03-15T09:46:10.088Z,2.04
2023-03-15T09:47:10.020Z,2.01
2023-03-15T09:48:10.007Z,2.04
2023-03-15T09:49:10.016Z,2.01
2023-03-15T09:50:09.976Z,2.01
2023-03-15T09:51:09.960Z,2.02
2023-03-15T09:52:09.964Z,2.01
2023-03-15T09:53:09.949Z,2.00
2023-03-15T09:54:09.968Z,2.00
2023-03-15T09:55:09.983Z,1.95
2023-03-15T09:56:09.911Z,2.01
2023-03-15T09:57:09.906Z,2.00
2023-03-15T09:58:09.905Z,2.00
2023-03-15T09:59:09.893Z,2.04
2023-03-15T10:00:09.873Z,2.02
2023-03-15T10:01:09.882Z,2.07
2023-03-15T10:02:09.868Z,2.04
2023-03-15T10:03:09.895Z,2.05
2023-03-15T10:04:09.866Z,2.07
2023-03-15T10:05:09.829Z,2.07
2023-03-15T10:06:09.819Z,2.04
2023-03-15T10:07:09.847Z,2.04
2023-03-15T10:08:09.814Z,2.04
2023-03-15T10:09:09.784Z,2.04
2023-03-15T10:10:09.798Z,2.04
2023-03-15T10:11:09.763Z,2.05
2023-03-15T10:12:09.755Z,2.04
2023-03-15T10:13:09.742Z,2.05
2023-03-15T10:14:09.725Z,2.04
2023-03-15T10:15:09.748Z,2.07
2023-03-15T10:16:09.754Z,2.08
2023-03-15T10:17:09.699Z,2.12
2023-03-15T10:18:09.697Z,2.15
2023-03-15T10:19:09.686Z,2.20
2023-03-15T10:20:09.750Z,2.23
2023-03-15T10:21:09.658Z,2.26
2023-03-15T10:22:09.655Z,2.27
2023-03-15T10:23:09.651Z,2.30
2023-03-15T10:24:09.623Z,2.30
2023-03-15T10:25:09.641Z,2.27
2023-03-15T10:26:09.636Z,2.29
2023-03-15T10:27:09.608Z,2.29
2023-03-15T10:28:09.591Z,2.26
2023-03-15T10:29:09.580Z,2.29
2023-03-15T10:30:09.566Z,2.30
2023-03-15T10:31:09.591Z,2.32
2023-03-15T10:32:09.635Z,2.32
2023-03-15T10:33:09.544Z,2.36
2023-03-15T10:34:09.549Z,2.40
2023-03-15T10:35:09.509Z,2.41
2023-03-15T10:36:11.323Z,2.43
2023-03-15T10:37:09.489Z,2.45
2023-03-15T10:38:09.475Z,2.48
2023-03-15T10:39:09.467Z,2.48
2023-03-15T10:40:09.494Z,2.50
2023-03-15T10:41:10.012Z,2.48
2023-03-15T10:42:09.463Z,2.50
2023-03-15T10:43:10.265Z,2.47
2023-03-15T10:44:09.418Z,2.47
2023-03-15T10:45:09.434Z,2.44
2023-03-15T10:46:09.451Z,2.44
2023-03-15T10:47:22.611Z,2.45
2023-03-15T10:48:09.374Z,2.45
2023-03-15T10:49:09.376Z,2.44
2023-03-15T10:50:09.353Z,2.45
2023-03-15T10:51:09.355Z,2.45
2023-03-15T10:52:09.334Z,2.45
2023-03-15T10:53:09.348Z,2.45
2023-03-15T10:54:09.309Z,2.45
2023-03-15T10:55:09.302Z,2.47
2023-03-15T10:56:09.290Z,2.45
2023-03-15T10:57:09.306Z,2.50
2023-03-15T10:58:09.275Z,2.53
2023-03-15T10:59:12.779Z,2.53
2023-03-15T11:00:09.250Z,2.56
2023-03-15T11:01:09.238Z,2.55
2023-03-15T11:02:09.381Z,2.55
2023-03-15T11:03:09.271Z,2.56
2023-03-15T11:04:09.216Z,2.58
2023-03-15T11:05:09.197Z,2.61
2023-03-15T11:06:09.180Z,2.61
2023-03-15T11:07:09.182Z,2.62
2023-03-15T11:08:09.183Z,2.65
2023-03-15T11:09:09.162Z,2.68
2023-03-15T11:10:09.140Z,2.71
2023-03-15T11:11:09.138Z,2.74
2023-03-15T11:12:09.124Z,2.76
2023-03-15T11:13:09.115Z,2.77
2023-03-15T11:14:09.118Z,2.79
2023-03-15T11:15:09.094Z,2.80
2023-03-15T11:16:09.143Z,2.83
2023-03-15T11:17:09.069Z,2.87
2023-03-15T11:18:09.544Z,2.84
2023-03-15T11:19:09.076Z,2.84
2023-03-15T11:20:09.042Z,2.86
2023-03-15T11:21:09.048Z,2.84
2023-03-15T11:22:09.019Z,2.83
2023-03-15T11:23:09.023Z,2.83
2023-03-15T11:24:08.996Z,2.84
2023-03-15T11:25:08.998Z,2.84
2023-03-15T11:26:09.642Z,2.86
2023-03-15T11:27:08.975Z,2.87
2023-03-15T11:28:08.960Z,2.90
2023-03-15T11:29:08.954Z,2.95
2023-03-15T11:30:08.946Z,2.99
2023-03-15T11:31:08.968Z,2.99
2023-03-15T11:32:08.917Z,3.04
2023-03-15T11:33:08.969Z,3.07
2023-03-15T11:34:08.929Z,3.13
2023-03-15T11:35:08.906Z,3.15
2023-03-15T11:36:11.173Z,3.19
2023-03-15T11:37:10.331Z,3.23
2023-03-15T11:38:15.365Z,3.23
2023-03-15T11:39:08.855Z,3.25
2023-03-15T11:40:14.076Z,3.28
2023-03-15T11:41:08.836Z,3.30
2023-03-15T11:42:11.014Z,3.31
2023-03-15T11:43:08.849Z,3.31
2023-03-15T11:44:08.791Z,3.33
2023-03-15T11:45:08.780Z,3.35
2023-03-15T11:46:08.911Z,3.41
2023-03-15T11:47:08.804Z,3.42
2023-03-15T11:48:08.754Z,3.46
2023-03-15T11:49:08.758Z,3.53
2023-03-15T11:50:08.745Z,3.54
2023-03-15T11:51:08.723Z,3.59
2023-03-15T11:52:08.721Z,3.60
2023-03-15T11:53:08.701Z,3.57
2023-03-15T11:54:08.697Z,3.57
2023-03-15T11:55:08.706Z,3.60
2023-03-15T11:56:08.673Z,3.57
2023-03-15T11:57:08.668Z,3.57
2023-03-15T11:58:08.691Z,3.53
2023-03-15T11:59:08.662Z,3.52
2023-03-15T12:00:08.663Z,3.52
2023-03-15T12:01:08.649Z,3.50
2023-03-15T12:02:08.661Z,3.50
2023-03-15T12:03:08.825Z,3.49
2023-03-15T12:04:08.620Z,3.46
2023-03-15T12:05:17.968Z,3.46
2023-03-15T12:06:08.653Z,3.44
2023-03-15T12:07:08.633Z,3.42
2023-03-15T12:08:08.548Z,3.42
2023-03-15T12:09:08.537Z,3.42
2023-03-15T12:10:08.521Z,3.44
2023-03-15T12:11:08.531Z,3.42
2023-03-15T12:12:08.529Z,3.44
2023-03-15T12:13:08.496Z,3.42
2023-03-15T12:14:08.511Z,3.44
2023-03-15T12:15:08.607Z,3.41
2023-03-15T12:16:08.487Z,3.35
2023-03-15T12:17:08.477Z,3.35
2023-03-15T12:18:08.493Z,3.31
2023-03-15T12:19:08.433Z,3.30
2023-03-15T12:20:08.425Z,3.30
2023-03-15T12:21:08.440Z,3.31
2023-03-15T12:22:08.409Z,3.28
2023-03-15T12:23:08.401Z,3.28
2023-03-15T12:24:08.408Z,3.26
2023-03-15T12:25:08.415Z,3.25
2023-03-15T12:26:08.468Z,3.28
2023-03-15T12:27:08.406Z,3.26
2023-03-15T12:28:08.343Z,3.28
2023-03-15T12:29:08.334Z,3.28
2023-03-15T12:30:08.329Z,3.28
2023-03-15T12:31:08.486Z,3.30
2023-03-15T12:32:08.295Z,3.31
2023-03-15T12:33:08.296Z,3.34
2023-03-15T12:34:08.281Z,3.35
2023-03-15T12:35:08.286Z,3.39
2023-03-15T12:36:08.379Z,3.39
2023-03-15T12:37:08.244Z,3.42
2023-03-15T12:38:08.244Z,3.50
2023-03-15T12:39:08.242Z,3.54
2023-03-15T12:40:08.239Z,3.59
2023-03-15T12:41:08.198Z,3.62
2023-03-15T12:42:08.198Z,3.63
2023-03-15T12:43:08.180Z,3.62
2023-03-15T12:44:08.167Z,3.63
2023-03-15T12:45:08.174Z,3.56
2023-03-15T12:46:08.287Z,3.53
2023-03-15T12:47:08.143Z,3.52
2023-03-15T12:48:08.132Z,3.53
2023-03-15T12:49:08.120Z,3.54
2023-03-15T12:50:08.111Z,3.56
2023-03-15T12:51:08.116Z,3.57
2023-03-15T12:52:08.099Z,3.59
2023-03-15T12:53:08.379Z,3.60
2023-03-15T12:54:08.242Z,3.57
2023-03-15T12:55:08.062Z,3.57
2023-03-15T12:56:08.993Z,3.56
2023-03-15T12:57:08.037Z,3.54
2023-03-15T12:58:08.024Z,3.54
2023-03-15T12:59:08.029Z,3.50
2023-03-15T13:00:08.007Z,3.50
2023-03-15T13:01:08.070Z,3.49
2023-03-15T13:02:07.987Z,3.53
2023-03-15T13:03:08.064Z,3.53
2023-03-15T13:04:07.983Z,3.56
2023-03-15T13:05:07.952Z,3.60
2023-03-15T13:06:07.950Z,3.64
2023-03-15T13:07:07.940Z,3.68
2023-03-15T13:08:07.926Z,3.68
2023-03-15T13:09:07.930Z,3.70
2023-03-15T13:10:07.911Z,3.71
2023-03-15T13:11:08.340Z,3.71
2023-03-15T13:12:07.900Z,3.74
2023-03-15T13:13:07.884Z,3.80
2023-03-15T13:14:07.864Z,3.78
2023-03-15T13:15:07.853Z,3.77
2023-03-15T13:16:07.893Z,3.74
2023-03-15T13:17:07.826Z,3.70
2023-03-15T13:18:07.857Z,3.68